createdAt,value
2019-04-26T00:01:35.492Z,74.02
2019-04-26T00:04:07.733Z,73.98
2019-04-26T00:06:40.150Z,73.85
2019-04-26T00:09:35.825Z,73.83
2019-04-26T00:12:34.788Z,73.97
2019-04-26T00:15:40.462Z,74.74
2019-04-26T00:18:12.796Z,74.89
2019-04-26T00:20:44.333Z,74.65
2019-04-26T00:23:16.149Z,74.48
2019-04-26T00:25:47.390Z,74.39
2019-04-26T00:28:18.980Z,74.59
2019-04-26T00:30:50.087Z,74.82
2019-04-26T00:33:21.475Z,75.11
2019-04-26T00:35:52.654Z,74.75
2019-04-26T00:38:23.873Z,74.43
2019-04-26T00:40:57.016Z,74.14
2019-04-26T00:43:28.991Z,74.42
2019-04-26T00:46:02.800Z,74.53
2019-04-26T00:48:34.739Z,74.94
2019-04-26T00:51:06.795Z,74.85
2019-04-26T00:53:39.756Z,74.73
2019-04-26T00:56:11.632Z,74.51
2019-04-26T00:58:42.883Z,74.18
2019-04-26T01:01:16.512Z,74.72
2019-04-26T01:03:47.645Z,74.49
2019-04-26T01:06:20.941Z,74.34
2019-04-26T01:08:52.205Z,74.73
2019-04-26T01:11:23.875Z,75.10
2019-04-26T01:13:55.143Z,75.08
2019-04-26T01:16:26.479Z,74.76
2019-04-26T01:18:59.564Z,75.18
2019-04-26T01:21:37.298Z,75.58
2019-04-26T01:24:11.421Z,75.68
2019-04-26T01:26:43.279Z,76.27
2019-04-26T01:29:17.167Z,76.18
2019-04-26T01:32:04.798Z,76.19
2019-04-26T01:34:37.481Z,76.89
2019-04-26T01:37:08.992Z,77.17
2019-04-26T01:39:43.630Z,76.86
2019-04-26T01:42:27.140Z,77.43
2019-04-26T01:45:08.660Z,77.71
2019-04-26T01:47:40.879Z,77.40
2019-04-26T01:50:12.839Z,77.04
2019-04-26T01:52:45.804Z,76.79
2019-04-26T01:55:18.313Z,76.61
2019-04-26T01:57:49.812Z,76.61
2019-04-26T02:00:37.204Z,77.25
2019-04-26T02:03:15.562Z,76.41
2019-04-26T02:05:47.134Z,76.87
2019-04-26T02:08:18.877Z,76.70
2019-04-26T02:10:50.181Z,76.95
2019-04-26T02:13:21.369Z,76.88
2019-04-26T02:15:52.656Z,76.95
2019-04-26T02:18:24.080Z,76.57
2019-04-26T02:21:29.842Z,76.45
2019-04-26T02:24:19.961Z,76.58
2019-04-26T02:26:51.766Z,76.45
2019-04-26T02:29:26.838Z,76.68
2019-04-26T02:32:03.771Z,76.73
2019-04-26T02:34:37.996Z,76.44
2019-04-26T02:37:12.542Z,76.44
2019-04-26T02:39:43.946Z,77.25
2019-04-26T02:42:36.835Z,76.62
2019-04-26T02:45:32.730Z,76.76
2019-04-26T02:48:27.152Z,77.33
2019-04-26T02:51:03.434Z,77.93
2019-04-26T02:53:57.609Z,78.34
2019-04-26T02:56:40.137Z,78.14
2019-04-26T02:59:42.462Z,78.30
2019-04-26T03:02:26.591Z,78.84
2019-04-26T03:05:00.976Z,79.12
2019-04-26T03:08:17.468Z,78.94
2019-04-26T03:10:59.121Z,79.09
2019-04-26T03:13:48.848Z,79.08
2019-04-26T03:16:44.781Z,79.09
2019-04-26T03:19:36.232Z,78.81
2019-04-26T03:22:25.711Z,78.81
2019-04-26T03:25:27.818Z,78.75
2019-04-26T03:28:44.444Z,79.24
2019-04-26T03:31:53.521Z,78.93
2019-04-26T03:34:27.897Z,78.62
2019-04-26T03:37:30.059Z,78.67
2019-04-26T03:40:17.116Z,78.85
2019-04-26T03:43:25.450Z,78.60
2019-04-26T03:46:22.239Z,78.60
2019-04-26T03:49:24.697Z,78.72
2019-04-26T03:52:30.063Z,79.18
2019-04-26T03:55:05.242Z,78.95
2019-04-26T03:57:49.677Z,79.32
2019-04-26T04:00:43.426Z,79.28
2019-04-26T04:03:43.061Z,78.87
2019-04-26T04:06:19.558Z,78.72
2019-04-26T04:09:04.983Z,78.45
2019-04-26T04:11:48.818Z,78.77
2019-04-26T04:14:37.898Z,78.17
2019-04-26T04:17:25.815Z,77.64
2019-04-26T04:20:46.181Z,77.94
2019-04-26T04:23:39.775Z,77.68
2019-04-26T04:26:14.651Z,78.25
2019-04-26T04:29:20.649Z,78.17
2019-04-26T04:31:55.570Z,77.52
2019-04-26T04:34:35.935Z,77.23
2019-04-26T04:37:09.375Z,76.81
2019-04-26T04:40:00.168Z,76.48
2019-04-26T04:42:48.753Z,75.88
2019-04-26T04:45:59.418Z,76.19
2019-04-26T04:49:31.294Z,76.04
2019-04-26T04:52:22.911Z,75.89
2019-04-26T04:55:07.166Z,74.90
2019-04-26T04:57:48.154Z,74.41
2019-04-26T05:00:49.310Z,73.21
2019-04-26T05:03:53.171Z,72.77
2019-04-26T05:07:21.586Z,71.91
2019-04-26T05:10:07.131Z,70.25
2019-04-26T05:12:57.454Z,68.71
2019-04-26T05:16:17.796Z,67.86
2019-04-26T05:19:41.413Z,66.56
2019-04-26T05:23:05.194Z,63.40
2019-04-26T05:26:33.605Z,63.40
2019-04-26T05:29:48.263Z,61.26
2019-04-26T05:32:48.616Z,58.03
2019-04-26T05:35:53.897Z,58.03
2019-04-26T05:38:47.894Z,56.44
2019-04-26T05:42:17.067Z,56.09
2019-04-26T05:45:43.148Z,55.08
2019-04-26T05:48:39.952Z,60.05
2019-04-26T05:51:39.832Z,60.26
2019-04-26T05:54:38.689Z,60.25
2019-04-26T05:57:42.159Z,58.25
2019-04-26T06:00:53.705Z,57.74
2019-04-26T06:04:22.906Z,57.49
2019-04-26T06:07:14.028Z,59.36
2019-04-26T06:10:27.014Z,60.69
2019-04-26T06:13:45.927Z,61.65
2019-04-26T06:16:53.125Z,60.84
2019-04-26T06:19:51.954Z,60.84
2019-04-26T06:22:37.191Z,61.57
2019-04-26T06:25:39.323Z,60.27
2019-04-26T06:28:23.959Z,60.34
2019-04-26T06:31:27.743Z,58.31
2019-04-26T06:34:18.276Z,56.65
2019-04-26T06:37:04.352Z,56.30
2019-04-26T06:39:52.241Z,56.53
2019-04-26T06:43:26.585Z,56.04
2019-04-26T06:46:26.676Z,58.61
2019-04-26T06:49:39.862Z,56.97
2019-04-26T06:52:15.167Z,56.47
2019-04-26T06:54:56.400Z,52.81
2019-04-26T06:58:05.047Z,54.99
2019-04-26T07:01:15.936Z,52.89
2019-04-26T07:04:21.867Z,55.24
2019-04-26T07:07:08.219Z,52.40
2019-04-26T07:10:06.365Z,53.72
2019-04-26T07:12:55.509Z,54.49
2019-04-26T07:15:51.768Z,54.01
2019-04-26T07:18:56.171Z,53.38
2019-04-26T07:22:49.904Z,53.45
2019-04-26T07:25:56.595Z,52.91
2019-04-26T07:29:09.391Z,51.54
2019-04-26T07:32:19.050Z,51.70
2019-04-26T07:35:16.808Z,51.61
2019-04-26T07:38:55.773Z,50.68
2019-04-26T07:42:07.414Z,49.94
2019-04-26T07:45:21.457Z,48.95
2019-04-26T07:48:21.879Z,49.82
2019-04-26T07:51:28.202Z,50.35
2019-04-26T07:54:35.824Z,48.74
2019-04-26T07:57:39.594Z,49.90
2019-04-26T08:00:20.057Z,48.85
2019-04-26T08:03:13.062Z,49.47
2019-04-26T08:06:20.626Z,47.12
2019-04-26T08:08:58.459Z,48.17
2019-04-26T08:11:36.426Z,47.43
2019-04-26T08:14:12.554Z,47.42
2019-04-26T08:17:17.454Z,47.06
2019-04-26T08:19:59.714Z,49.54
2019-04-26T08:22:34.509Z,48.76
2019-04-26T08:25:08.301Z,49.08
2019-04-26T08:27:41.620Z,49.11
2019-04-26T08:30:19.027Z,49.30
2019-04-26T08:32:56.342Z,50.60
2019-04-26T08:35:30.524Z,46.48
2019-04-26T08:38:13.743Z,47.98
2019-04-26T08:40:41.457Z,49.24
2019-04-26T08:43:39.550Z,48.54
2019-04-26T08:46:26.256Z,50.59
2019-04-26T08:49:11.471Z,49.12
2019-04-26T08:51:45.654Z,47.84
2019-04-26T08:54:22.771Z,45.84
2019-04-26T08:57:03.301Z,45.12
2019-04-26T08:59:40.952Z,45.71
2019-04-26T09:02:39.280Z,47.25
2019-04-26T09:05:31.253Z,45.79
2019-04-26T09:08:05.617Z,47.19
2019-04-26T09:10:43.218Z,44.74
2019-04-26T09:13:15.954Z,45.31
2019-04-26T09:16:20.233Z,46.91
2019-04-26T09:18:54.305Z,45.44
2019-04-26T09:21:38.929Z,45.93
2019-04-26T09:24:34.333Z,44.98
2019-04-26T09:27:27.416Z,47.00
2019-04-26T09:30:08.547Z,45.75
2019-04-26T09:32:52.683Z,44.58
2019-04-26T09:35:23.651Z,40.88
2019-04-26T09:37:56.109Z,43.99
2019-04-26T09:40:27.413Z,42.72
2019-04-26T09:43:10.528Z,42.53
2019-04-26T09:45:57.044Z,43.78
2019-04-26T09:48:36.649Z,42.30
2019-04-26T09:51:07.817Z,41.99
2019-04-26T09:53:42.851Z,41.48
2019-04-26T09:56:12.400Z,38.69
2019-04-26T09:58:43.537Z,39.00
2019-04-26T10:01:14.793Z,39.98
2019-04-26T10:03:46.396Z,37.61
2019-04-26T10:06:17.562Z,37.63
2019-04-26T10:08:49.174Z,38.73
2019-04-26T10:11:22.382Z,36.83
2019-04-26T10:13:59.453Z,37.42
2019-04-26T10:16:42.184Z,36.07
2019-04-26T10:19:14.749Z,35.54
2019-04-26T10:21:46.238Z,35.50
2019-04-26T10:24:17.936Z,36.61
2019-04-26T10:26:48.972Z,35.82
2019-04-26T10:29:21.684Z,34.36
2019-04-26T10:31:53.342Z,37.14
2019-04-26T10:34:24.678Z,34.58
2019-04-26T10:36:57.118Z,34.05
2019-04-26T10:39:28.672Z,34.69
2019-04-26T10:42:01.149Z,34.26
2019-04-26T10:44:35.788Z,33.92
2019-04-26T10:47:06.071Z,33.85
2019-04-26T10:49:44.577Z,34.76
2019-04-26T10:52:26.618Z,34.72
2019-04-26T10:55:17.444Z,31.48
2019-04-26T10:57:51.518Z,31.63
2019-04-26T11:00:28.676Z,32.64
2019-04-26T11:03:04.454Z,32.24
2019-04-26T11:05:33.555Z,32.56
2019-04-26T11:08:04.858Z,32.18
2019-04-26T11:10:47.951Z,31.61
2019-04-26T11:13:10.847Z,29.72
2019-04-26T11:15:42.241Z,29.45
2019-04-26T11:18:13.714Z,29.59
2019-04-26T11:20:45.707Z,28.72
2019-04-26T11:23:18.871Z,30.74
2019-04-26T11:25:50.291Z,30.15
2019-04-26T11:28:22.906Z,28.31
2019-04-26T11:30:57.307Z,30.82
2019-04-26T11:33:27.404Z,29.77
2019-04-26T11:35:58.664Z,28.04
2019-04-26T11:38:31.248Z,29.13
2019-04-26T11:41:06.238Z,28.62
2019-04-26T11:43:35.668Z,30.71
2019-04-26T11:46:07.507Z,31.69
2019-04-26T11:48:38.812Z,32.34
2019-04-26T11:51:10.627Z,31.11
2019-04-26T11:53:44.697Z,29.19
2019-04-26T11:56:15.680Z,29.95
2019-04-26T11:58:47.067Z,30.41
2019-04-26T12:01:20.430Z,28.94
2019-04-26T12:04:08.910Z,27.30
2019-04-26T12:07:02.067Z,25.86
2019-04-26T12:09:35.994Z,27.47
2019-04-26T12:12:09.219Z,28.04
2019-04-26T12:14:40.379Z,28.35
2019-04-26T12:17:11.595Z,31.21
2019-04-26T12:19:42.770Z,33.49
2019-04-26T12:22:13.866Z,33.90
2019-04-26T12:24:45.084Z,30.74
2019-04-26T12:27:16.640Z,30.69
2019-04-26T12:29:49.533Z,30.71
2019-04-26T12:32:21.105Z,31.53
2019-04-26T12:34:52.307Z,31.95
2019-04-26T12:37:23.556Z,33.10
2019-04-26T12:39:54.729Z,32.55
2019-04-26T12:42:25.894Z,31.82
2019-04-26T12:45:27.829Z,31.48
2019-04-26T12:48:00.089Z,32.42
2019-04-26T12:50:36.414Z,32.61
2019-04-26T12:53:04.338Z,32.28
2019-04-26T12:55:35.684Z,32.87
2019-04-26T12:58:07.091Z,30.69
2019-04-26T13:00:38.924Z,30.73
2019-04-26T13:03:20.090Z,31.08
2019-04-26T13:05:43.450Z,30.64
2019-04-26T13:08:16.909Z,31.15
2019-04-26T13:11:07.943Z,31.65
2019-04-26T13:13:45.138Z,32.89
2019-04-26T13:16:47.595Z,30.96
2019-04-26T13:19:20.941Z,31.13
2019-04-26T13:21:52.385Z,30.40
2019-04-26T13:24:23.894Z,30.05
2019-04-26T13:26:55.091Z,30.27
2019-04-26T13:29:27.199Z,30.31
2019-04-26T13:31:59.601Z,30.44
2019-04-26T13:34:33.356Z,31.01
2019-04-26T13:37:04.057Z,31.05
2019-04-26T13:39:35.160Z,30.08
2019-04-26T13:42:09.441Z,29.52
2019-04-26T13:45:16.354Z,31.04
2019-04-26T13:48:05.142Z,30.30
2019-04-26T13:50:39.755Z,32.18
2019-04-26T13:53:10.948Z,31.88
2019-04-26T13:55:43.149Z,31.18
2019-04-26T13:58:15.424Z,30.55
2019-04-26T14:00:47.108Z,30.82
2019-04-26T14:03:18.116Z,30.38
2019-04-26T14:05:49.339Z,30.44
2019-04-26T14:08:20.629Z,30.00
2019-04-26T14:10:51.781Z,30.28
2019-04-26T14:13:24.948Z,29.74
2019-04-26T14:15:56.027Z,29.84
2019-04-26T14:18:27.142Z,29.42
2019-04-26T14:21:00.010Z,29.87
2019-04-26T14:23:49.374Z,29.07
2019-04-26T14:26:39.856Z,28.78
2019-04-26T14:29:11.529Z,28.99
2019-04-26T14:31:42.977Z,29.23
2019-04-26T14:34:14.400Z,29.76
2019-04-26T14:36:45.848Z,29.41
2019-04-26T14:39:19.663Z,28.61
2019-04-26T14:41:52.837Z,28.78
2019-04-26T14:44:27.290Z,29.51
2019-04-26T14:46:56.950Z,29.50
2019-04-26T14:49:38.983Z,29.62
2019-04-26T14:52:01.587Z,29.40
2019-04-26T14:54:32.814Z,29.57
2019-04-26T14:57:10.327Z,29.51
2019-04-26T14:59:56.642Z,29.71
2019-04-26T15:02:57.632Z,29.97
2019-04-26T15:05:47.891Z,29.54
2019-04-26T15:08:19.073Z,29.60
2019-04-26T15:10:57.627Z,29.82
2019-04-26T15:13:23.579Z,29.46
2019-04-26T15:15:54.601Z,29.68
2019-04-26T15:18:29.175Z,29.43
2019-04-26T15:20:58.723Z,30.22
2019-04-26T15:23:32.883Z,29.48
2019-04-26T15:26:04.557Z,29.76
2019-04-26T15:28:35.567Z,29.29
2019-04-26T15:31:07.081Z,29.89
2019-04-26T15:33:38.190Z,29.35
2019-04-26T15:36:11.230Z,29.53
2019-04-26T15:38:44.985Z,29.72
2019-04-26T15:41:47.006Z,29.92
2019-04-26T15:44:36.108Z,29.78
2019-04-26T15:47:13.100Z,29.76
2019-04-26T15:49:52.935Z,30.16
2019-04-26T15:52:24.347Z,30.40
2019-04-26T15:54:58.955Z,30.12
2019-04-26T15:57:30.905Z,30.42
2019-04-26T15:59:59.315Z,30.18
2019-04-26T16:02:32.021Z,30.37
2019-04-26T16:05:03.524Z,30.45
2019-04-26T16:07:34.986Z,30.61
2019-04-26T16:10:06.542Z,30.37
2019-04-26T16:12:39.938Z,31.29
2019-04-26T16:15:14.715Z,32.99
2019-04-26T16:17:44.950Z,34.08
2019-04-26T16:20:16.578Z,35.10
2019-04-26T16:22:49.224Z,35.84
2019-04-26T16:25:22.980Z,36.25
2019-04-26T16:28:13.775Z,36.42
2019-04-26T16:31:11.011Z,36.63
2019-04-26T16:33:43.082Z,36.77
2019-04-26T16:36:14.373Z,37.19
2019-04-26T16:38:48.602Z,37.48
2019-04-26T16:41:21.755Z,37.52
2019-04-26T16:43:53.330Z,37.89
2019-04-26T16:46:24.942Z,37.87
2019-04-26T16:49:03.792Z,37.97
2019-04-26T16:51:29.071Z,38.16
2019-04-26T16:54:07.560Z,38.15
2019-04-26T16:56:35.986Z,37.97
2019-04-26T16:59:06.718Z,38.16
2019-04-26T17:01:42.137Z,38.25
2019-04-26T17:04:11.606Z,38.20
2019-04-26T17:06:44.935Z,38.17
2019-04-26T17:09:16.091Z,38.39
2019-04-26T17:11:47.340Z,38.40
2019-04-26T17:14:22.302Z,38.40
2019-04-26T17:16:53.211Z,38.58
2019-04-26T17:19:24.359Z,38.30
2019-04-26T17:22:17.355Z,38.59
2019-04-26T17:24:56.123Z,39.07
2019-04-26T17:27:27.169Z,40.23
2019-04-26T17:29:58.236Z,40.75
2019-04-26T17:32:29.310Z,41.08
2019-04-26T17:35:04.821Z,41.30
2019-04-26T17:37:33.434Z,41.43
2019-04-26T17:40:04.879Z,42.02
2019-04-26T17:42:36.735Z,42.42
2019-04-26T17:45:08.631Z,42.33
2019-04-26T17:47:42.434Z,42.50
2019-04-26T17:50:13.886Z,42.76
2019-04-26T17:52:45.076Z,42.87
2019-04-26T17:55:16.338Z,43.32
2019-04-26T17:57:49.880Z,43.58
2019-04-26T18:00:27.130Z,43.73
2019-04-26T18:02:57.369Z,44.04
2019-04-26T18:05:45.061Z,44.29
2019-04-26T18:08:30.471Z,44.40
2019-04-26T18:10:35.608Z,44.61
2019-04-26T18:13:11.285Z,45.20
2019-04-26T18:15:46.930Z,45.23
2019-04-26T18:18:35.892Z,45.48
2019-04-26T18:21:35.051Z,45.65
2019-04-26T18:24:06.497Z,45.65
2019-04-26T18:26:37.742Z,45.74
2019-04-26T18:29:08.994Z,45.74
2019-04-26T18:31:40.407Z,45.77
2019-04-26T18:34:12.791Z,45.88
2019-04-26T18:36:44.004Z,46.13
2019-04-26T18:39:18.107Z,46.26
2019-04-26T18:41:48.222Z,46.30
2019-04-26T18:44:19.516Z,46.30
2019-04-26T18:46:55.638Z,46.23
2019-04-26T18:49:27.195Z,46.60
2019-04-26T18:51:58.268Z,46.41
2019-04-26T18:54:51.332Z,46.49
2019-04-26T18:57:21.343Z,46.46
2019-04-26T18:59:52.986Z,46.53
2019-04-26T19:02:26.018Z,46.60
2019-04-26T19:04:57.427Z,46.86
2019-04-26T19:07:32.315Z,47.19
2019-04-26T19:10:05.126Z,47.23
2019-04-26T19:12:36.995Z,47.60
2019-04-26T19:15:40.368Z,47.70
2019-04-26T19:18:33.827Z,48.11
2019-04-26T19:21:23.321Z,48.21
2019-04-26T19:24:04.913Z,48.58
2019-04-26T19:26:32.981Z,49.06
2019-04-26T19:29:03.251Z,49.12
2019-04-26T19:31:34.518Z,49.24
2019-04-26T19:34:05.814Z,49.43
2019-04-26T19:36:37.037Z,49.80
2019-04-26T19:39:08.529Z,49.94
2019-04-26T19:41:42.062Z,49.95
2019-04-26T19:44:14.634Z,49.93
2019-04-26T19:47:06.705Z,50.05
2019-04-26T19:50:11.226Z,50.17
2019-04-26T19:53:21.182Z,50.34
2019-04-26T19:56:24.596Z,50.46
2019-04-26T19:58:57.361Z,50.83
2019-04-26T20:01:25.792Z,51.01
2019-04-26T20:03:57.008Z,51.09
2019-04-26T20:06:28.255Z,51.38
2019-04-26T20:09:01.950Z,51.53
2019-04-26T20:11:34.594Z,52.00
2019-04-26T20:14:05.769Z,52.80
2019-04-26T20:16:40.798Z,53.08
2019-04-26T20:19:14.943Z,53.43
2019-04-26T20:21:45.430Z,53.66
2019-04-26T20:24:18.316Z,53.76
2019-04-26T20:26:48.723Z,54.01
2019-04-26T20:29:21.482Z,54.11
2019-04-26T20:32:24.005Z,54.47
2019-04-26T20:35:07.706Z,54.56
2019-04-26T20:37:39.013Z,54.82
2019-04-26T20:40:20.369Z,55.15
2019-04-26T20:42:44.085Z,55.33
2019-04-26T20:45:16.987Z,55.67
2019-04-26T20:47:52.005Z,55.49
2019-04-26T20:50:21.764Z,55.61
2019-04-26T20:52:54.015Z,55.81
2019-04-26T20:55:30.759Z,55.83
2019-04-26T20:57:59.855Z,56.26
2019-04-26T21:00:31.704Z,56.37
2019-04-26T21:03:05.908Z,56.65
2019-04-26T21:05:45.882Z,56.73
2019-04-26T21:08:09.378Z,56.83
2019-04-26T21:10:41.771Z,57.01
2019-04-26T21:13:13.357Z,57.08
2019-04-26T21:15:56.045Z,57.44
2019-04-26T21:18:17.575Z,57.69
2019-04-26T21:20:48.828Z,57.61
2019-04-26T21:23:22.148Z,57.73
2019-04-26T21:26:07.049Z,57.76
2019-04-26T21:28:43.966Z,58.00
2019-04-26T21:31:36.413Z,57.92
2019-04-26T21:34:15.446Z,57.74
2019-04-26T21:37:11.425Z,57.77
2019-04-26T21:39:49.374Z,57.65
2019-04-26T21:42:20.954Z,57.93
2019-04-26T21:44:54.911Z,57.83
2019-04-26T21:47:27.550Z,57.81
2019-04-26T21:50:00.759Z,57.90
2019-04-26T21:52:34.303Z,57.68
2019-04-26T21:55:06.616Z,57.41
2019-04-26T21:57:37.753Z,57.36
2019-04-26T22:00:20.864Z,57.36
2019-04-26T22:02:53.732Z,57.68
2019-04-26T22:05:25.058Z,57.86
2019-04-26T22:07:56.229Z,57.87
2019-04-26T22:10:43.657Z,57.85
2019-04-26T22:13:14.988Z,58.08
2019-04-26T22:16:29.392Z,58.58
2019-04-26T22:18:58.856Z,58.49
2019-04-26T22:21:38.907Z,58.56
2019-04-26T22:24:19.538Z,58.91
2019-04-26T22:26:50.838Z,59.79
2019-04-26T22:29:22.958Z,60.41
2019-04-26T22:31:54.822Z,60.16
2019-04-26T22:34:25.963Z,59.90
2019-04-26T22:36:57.279Z,61.27
2019-04-26T22:39:32.762Z,60.48
2019-04-26T22:42:02.749Z,60.78
2019-04-26T22:44:45.487Z,60.56
2019-04-26T22:47:24.048Z,61.83
2019-04-26T22:49:55.736Z,61.41
2019-04-26T22:52:27.121Z,62.39
2019-04-26T22:54:58.577Z,62.39
2019-04-26T22:57:29.992Z,62.08
2019-04-26T23:00:01.197Z,62.08
2019-04-26T23:02:33.803Z,62.34
2019-04-26T23:05:06.054Z,62.74
2019-04-26T23:07:37.367Z,62.49
2019-04-26T23:10:09.609Z,62.63
2019-04-26T23:13:07.559Z,62.86
2019-04-26T23:15:44.581Z,63.10
2019-04-26T23:18:33.550Z,62.99
2019-04-26T23:21:11.903Z,63.06
2019-04-26T23:23:42.737Z,63.39
2019-04-26T23:26:14.542Z,63.55
2019-04-26T23:28:45.711Z,64.30
2019-04-26T23:31:16.639Z,64.30
2019-04-26T23:33:48.303Z,63.81
2019-04-26T23:36:19.711Z,64.47
2019-04-26T23:38:50.672Z,64.42
2019-04-26T23:41:23.492Z,64.30
2019-04-26T23:44:02.282Z,64.67
2019-04-26T23:46:27.079Z,64.37
2019-04-26T23:48:58.344Z,64.40
2019-04-26T23:51:29.399Z,64.65
2019-04-26T23:54:00.539Z,65.70
2019-04-26T23:56:33.195Z,66.22
2019-04-26T23:59:04.628Z,66.37
